DAL2020 KATL-KOKC
Flight info
| Callsign | DAL2020 |
|---|---|
| Flight time | 1h 59m |
| Altitude | 30000 |
| Route | NASSA2 YAALL J14 DWINE RIFFL3 |
| Aircraft | B738/M-SDE2E3GIJ4RWZ/LB2 |
Departure
| Time | 2026-05-05 17:39 |
|---|---|
| Airport | Hartsfield Jackson Atlanta International Airport (KATL) |
Arrival
| Time | 2026-05-05 19:39 |
|---|---|
| Airport | OKC Will Rogers World Airport (KOKC) |
| Time | Latitude | Longitude | Altitude | Speed | Heading |
|---|---|---|---|---|---|
| 2026-05-05 17:25 | 33.64340 | -84.43868 | 1021 ft | 0 kts | 270° |
| 2026-05-05 17:28 | 33.64340 | -84.43864 | 1022 ft | 2 kts | 270° |
| 2026-05-05 17:29 | 33.64340 | -84.43847 | 1022 ft | 2 kts | 270° |
| 2026-05-05 17:29 | 33.64340 | -84.43829 | 1021 ft | 2 kts | 272° |
| 2026-05-05 17:29 | 33.64336 | -84.43811 | 1022 ft | 2 kts | 302° |
| 2026-05-05 17:29 | 33.64327 | -84.43797 | 1022 ft | 2 kts | 323° |
| 2026-05-05 17:30 | 33.64314 | -84.43789 | 1021 ft | 2 kts | 347° |
| 2026-05-05 17:30 | 33.64305 | -84.43787 | 1022 ft | 1 kts | 0° |
| 2026-05-05 17:30 | 33.64299 | -84.43788 | 1021 ft | 0 kts | 0° |
| 2026-05-05 17:33 | 33.64300 | -84.43788 | 1021 ft | 0 kts | 0° |
| 2026-05-05 17:33 | 33.64334 | -84.43788 | 1021 ft | 10 kts | 359° |
| 2026-05-05 17:34 | 33.64427 | -84.43773 | 1021 ft | 14 kts | 37° |
| 2026-05-05 17:34 | 33.64460 | -84.43633 | 1022 ft | 21 kts | 90° |
| 2026-05-05 17:34 | 33.64459 | -84.43437 | 1021 ft | 24 kts | 90° |
| 2026-05-05 17:34 | 33.64459 | -84.43223 | 1021 ft | 26 kts | 90° |
| 2026-05-05 17:35 | 33.64459 | -84.42995 | 1021 ft | 27 kts | 90° |
| 2026-05-05 17:35 | 33.64463 | -84.42754 | 1021 ft | 30 kts | 87° |
| 2026-05-05 17:35 | 33.64468 | -84.42487 | 1017 ft | 34 kts | 90° |
| 2026-05-05 17:35 | 33.64499 | -84.42205 | 1012 ft | 34 kts | 62° |
| 2026-05-05 17:36 | 33.64540 | -84.41930 | 1008 ft | 34 kts | 91° |
| 2026-05-05 17:36 | 33.64540 | -84.41638 | 1007 ft | 34 kts | 91° |
| 2026-05-05 17:36 | 33.64538 | -84.41358 | 1013 ft | 31 kts | 89° |
| 2026-05-05 17:36 | 33.64539 | -84.41105 | 1018 ft | 29 kts | 92° |
| 2026-05-05 17:37 | 33.64540 | -84.40875 | 1024 ft | 25 kts | 88° |
| 2026-05-05 17:37 | 33.64569 | -84.40690 | 1031 ft | 20 kts | 90° |
| 2026-05-05 17:37 | 33.64595 | -84.40577 | 1034 ft | 11 kts | 28° |
| 2026-05-05 17:37 | 33.64665 | -84.40581 | 1034 ft | 9 kts | 317° |
| 2026-05-05 17:38 | 33.64677 | -84.40653 | 1033 ft | 8 kts | 269° |
| 2026-05-05 17:38 | 33.64677 | -84.40750 | 1029 ft | 23 kts | 270° |
| 2026-05-05 17:38 | 33.64677 | -84.41246 | 1015 ft | 92 kts | 269° |
| 2026-05-05 17:38 | 33.64680 | -84.42238 | 1012 ft | 146 kts | 269° |
| 2026-05-05 17:39 | 33.64685 | -84.43632 | 1107 ft | 180 kts | 266° |
| 2026-05-05 17:39 | 33.64686 | -84.45066 | 1756 ft | 171 kts | 265° |
| 2026-05-05 17:39 | 33.64750 | -84.46518 | 2257 ft | 181 kts | 275° |
| 2026-05-05 17:39 | 33.65053 | -84.48010 | 2708 ft | 189 kts | 282° |
| 2026-05-05 17:40 | 33.65395 | -84.49594 | 3021 ft | 200 kts | 280° |
| 2026-05-05 17:40 | 33.65708 | -84.51257 | 3335 ft | 211 kts | 279° |
| 2026-05-05 17:40 | 33.66031 | -84.53047 | 3575 ft | 229 kts | 279° |
| 2026-05-05 17:40 | 33.66381 | -84.54981 | 3896 ft | 243 kts | 279° |
| 2026-05-05 17:41 | 33.66754 | -84.56996 | 4310 ft | 254 kts | 280° |
| 2026-05-05 17:41 | 33.67147 | -84.59132 | 4693 ft | 267 kts | 279° |
| 2026-05-05 17:41 | 33.67525 | -84.61306 | 5216 ft | 273 kts | 279° |
| 2026-05-05 17:41 | 33.67904 | -84.63554 | 5800 ft | 276 kts | 279° |
| 2026-05-05 17:42 | 33.68288 | -84.65838 | 6446 ft | 277 kts | 279° |
| 2026-05-05 17:42 | 33.68670 | -84.68102 | 7144 ft | 276 kts | 279° |
| 2026-05-05 17:42 | 33.69050 | -84.70356 | 7849 ft | 276 kts | 279° |
| 2026-05-05 17:42 | 33.69425 | -84.72582 | 8545 ft | 275 kts | 279° |
| 2026-05-05 17:43 | 33.69803 | -84.74828 | 9212 ft | 276 kts | 279° |
| 2026-05-05 17:43 | 33.70045 | -84.77099 | 9905 ft | 276 kts | 271° |
| 2026-05-05 17:43 | 33.70080 | -84.79407 | 10449 ft | 282 kts | 268° |
| 2026-05-05 17:43 | 33.70041 | -84.81824 | 10807 ft | 296 kts | 268° |
| 2026-05-05 17:44 | 33.69997 | -84.84352 | 11151 ft | 310 kts | 268° |
| 2026-05-05 17:44 | 33.69970 | -84.86982 | 11510 ft | 323 kts | 269° |
| 2026-05-05 17:44 | 33.69958 | -84.89728 | 11896 ft | 335 kts | 269° |
| 2026-05-05 17:44 | 33.69953 | -84.92535 | 12534 ft | 339 kts | 269° |
| 2026-05-05 17:45 | 33.69950 | -84.95351 | 13227 ft | 342 kts | 269° |
| 2026-05-05 17:45 | 33.69946 | -84.98209 | 13884 ft | 345 kts | 269° |
| 2026-05-05 17:45 | 33.69939 | -85.01089 | 14665 ft | 345 kts | 270° |
| 2026-05-05 17:45 | 33.69931 | -85.03951 | 15435 ft | 346 kts | 270° |
| 2026-05-05 17:46 | 33.69922 | -85.06830 | 16183 ft | 346 kts | 270° |
| 2026-05-05 17:46 | 33.69912 | -85.09727 | 16837 ft | 349 kts | 270° |
| 2026-05-05 17:46 | 33.69902 | -85.12620 | 17576 ft | 349 kts | 271° |
| 2026-05-05 17:46 | 33.69890 | -85.15542 | 18247 ft | 350 kts | 271° |
| 2026-05-05 17:47 | 33.69878 | -85.18471 | 18771 ft | 355 kts | 271° |
| 2026-05-05 17:47 | 33.69865 | -85.21448 | 19376 ft | 357 kts | 271° |
| 2026-05-05 17:47 | 33.69849 | -85.24403 | 19968 ft | 359 kts | 271° |
| 2026-05-05 17:47 | 33.69822 | -85.27406 | 20482 ft | 362 kts | 271° |
| 2026-05-05 17:48 | 33.69789 | -85.30428 | 21036 ft | 364 kts | 271° |
| 2026-05-05 17:48 | 33.69752 | -85.33476 | 21588 ft | 366 kts | 271° |
| 2026-05-05 17:48 | 33.69716 | -85.36524 | 22059 ft | 369 kts | 272° |
| 2026-05-05 17:48 | 33.69679 | -85.39610 | 22518 ft | 372 kts | 272° |
| 2026-05-05 17:49 | 33.69641 | -85.42725 | 22992 ft | 375 kts | 272° |
| 2026-05-05 17:49 | 33.69602 | -85.45872 | 23559 ft | 375 kts | 272° |
| 2026-05-05 17:49 | 33.69563 | -85.48978 | 23980 ft | 379 kts | 272° |
| 2026-05-05 17:49 | 33.69523 | -85.52158 | 24547 ft | 379 kts | 272° |
| 2026-05-05 17:50 | 33.69483 | -85.55311 | 24909 ft | 383 kts | 272° |
| 2026-05-05 17:50 | 33.69442 | -85.58501 | 25382 ft | 385 kts | 272° |
| 2026-05-05 17:50 | 33.69398 | -85.61730 | 25885 ft | 385 kts | 272° |
| 2026-05-05 17:50 | 33.69355 | -85.64931 | 26291 ft | 387 kts | 272° |
| 2026-05-05 17:51 | 33.69310 | -85.68226 | 26762 ft | 389 kts | 272° |
| 2026-05-05 17:51 | 33.69265 | -85.71456 | 27237 ft | 390 kts | 272° |
| 2026-05-05 17:51 | 33.69219 | -85.74705 | 27622 ft | 392 kts | 272° |
| 2026-05-05 17:51 | 33.69171 | -85.77992 | 28015 ft | 394 kts | 272° |
| 2026-05-05 17:52 | 33.69123 | -85.81276 | 28367 ft | 397 kts | 272° |
| 2026-05-05 17:52 | 33.69073 | -85.84585 | 28787 ft | 398 kts | 272° |
| 2026-05-05 17:52 | 33.69021 | -85.87901 | 29279 ft | 397 kts | 272° |
| 2026-05-05 17:52 | 33.68967 | -85.91206 | 29806 ft | 395 kts | 272° |
| 2026-05-05 17:53 | 33.68914 | -85.94472 | 29939 ft | 394 kts | 272° |
| 2026-05-05 17:53 | 33.68806 | -86.00993 | 29935 ft | 386 kts | 272° |
| 2026-05-05 17:54 | 33.68883 | -86.07433 | 29927 ft | 388 kts | 276° |
| 2026-05-05 17:54 | 33.69397 | -86.13886 | 29927 ft | 388 kts | 278° |
| 2026-05-05 17:55 | 33.69965 | -86.20293 | 29924 ft | 386 kts | 278° |
| 2026-05-05 17:55 | 33.70504 | -86.26734 | 29935 ft | 387 kts | 278° |
| 2026-05-05 17:56 | 33.71014 | -86.33127 | 29926 ft | 388 kts | 278° |
| 2026-05-05 17:56 | 33.71516 | -86.39606 | 29930 ft | 388 kts | 278° |
| 2026-05-05 17:57 | 33.72006 | -86.46001 | 30017 ft | 387 kts | 278° |
| 2026-05-05 17:57 | 33.72492 | -86.52416 | 30019 ft | 386 kts | 278° |
| 2026-05-05 17:58 | 33.72977 | -86.58861 | 30009 ft | 385 kts | 278° |
| 2026-05-05 17:58 | 33.73455 | -86.65258 | 30006 ft | 385 kts | 278° |
| 2026-05-05 17:59 | 33.73933 | -86.71712 | 30008 ft | 385 kts | 277° |
| 2026-05-05 17:59 | 33.74405 | -86.78117 | 30009 ft | 385 kts | 278° |
| 2026-05-05 18:00 | 33.74873 | -86.84508 | 30006 ft | 385 kts | 277° |
| 2026-05-05 18:00 | 33.75335 | -86.90865 | 30002 ft | 384 kts | 278° |
| 2026-05-05 18:01 | 33.75798 | -86.97272 | 29993 ft | 384 kts | 277° |
| 2026-05-05 18:01 | 33.76257 | -87.03664 | 29997 ft | 386 kts | 278° |
| 2026-05-05 18:02 | 33.76712 | -87.10053 | 29981 ft | 385 kts | 278° |
| 2026-05-05 18:02 | 33.77162 | -87.16456 | 29992 ft | 382 kts | 278° |
| 2026-05-05 18:03 | 33.77610 | -87.22830 | 29990 ft | 384 kts | 278° |
| 2026-05-05 18:03 | 33.78053 | -87.29203 | 29993 ft | 381 kts | 278° |
| 2026-05-05 18:04 | 33.78493 | -87.35579 | 30000 ft | 382 kts | 277° |
| 2026-05-05 18:04 | 33.78926 | -87.41926 | 29997 ft | 382 kts | 277° |
| 2026-05-05 18:05 | 33.79460 | -87.48261 | 29992 ft | 380 kts | 282° |
| 2026-05-05 18:05 | 33.80569 | -87.54436 | 29993 ft | 379 kts | 286° |
| 2026-05-05 18:06 | 33.81884 | -87.60557 | 29989 ft | 378 kts | 286° |
| 2026-05-05 18:06 | 33.83215 | -87.66759 | 29984 ft | 377 kts | 285° |
| 2026-05-05 18:07 | 33.84509 | -87.72905 | 29989 ft | 377 kts | 285° |
| 2026-05-05 18:07 | 33.85781 | -87.79002 | 29981 ft | 376 kts | 285° |
| 2026-05-05 18:08 | 33.87046 | -87.85118 | 29984 ft | 377 kts | 285° |
| 2026-05-05 18:08 | 33.88307 | -87.91244 | 29981 ft | 376 kts | 285° |
| 2026-05-05 18:09 | 33.89566 | -87.97383 | 29982 ft | 375 kts | 285° |
| 2026-05-05 18:09 | 33.90816 | -88.03496 | 29978 ft | 376 kts | 286° |
| 2026-05-05 18:10 | 33.92057 | -88.09580 | 29971 ft | 375 kts | 285° |
| 2026-05-05 18:10 | 33.93293 | -88.15655 | 29948 ft | 373 kts | 285° |
| 2026-05-05 18:11 | 33.94535 | -88.21764 | 29950 ft | 374 kts | 285° |
| 2026-05-05 18:11 | 33.95761 | -88.27827 | 29940 ft | 374 kts | 285° |
| 2026-05-05 18:12 | 33.96984 | -88.33890 | 29940 ft | 373 kts | 285° |
| 2026-05-05 18:12 | 33.98206 | -88.39958 | 29934 ft | 373 kts | 285° |
| 2026-05-05 18:13 | 33.99427 | -88.46039 | 29945 ft | 372 kts | 285° |
| 2026-05-05 18:13 | 34.00637 | -88.52090 | 29935 ft | 373 kts | 285° |
| 2026-05-05 18:14 | 34.01850 | -88.58194 | 29933 ft | 372 kts | 285° |
| 2026-05-05 18:14 | 34.03054 | -88.64231 | 29930 ft | 373 kts | 285° |
| 2026-05-05 18:15 | 34.04274 | -88.70368 | 29930 ft | 374 kts | 285° |
| 2026-05-05 18:15 | 34.05476 | -88.76442 | 29933 ft | 372 kts | 285° |
| 2026-05-05 18:16 | 34.06673 | -88.82503 | 29929 ft | 372 kts | 285° |
| 2026-05-05 18:16 | 34.07871 | -88.88597 | 29923 ft | 373 kts | 285° |
| 2026-05-05 18:17 | 34.09058 | -88.94633 | 29922 ft | 372 kts | 285° |
| 2026-05-05 18:17 | 34.10255 | -89.00738 | 29921 ft | 374 kts | 285° |
| 2026-05-05 18:18 | 34.11456 | -89.06878 | 29914 ft | 375 kts | 284° |
| 2026-05-05 18:18 | 34.12636 | -89.12952 | 29904 ft | 373 kts | 284° |
| 2026-05-05 18:19 | 34.13818 | -89.19050 | 29905 ft | 373 kts | 285° |
| 2026-05-05 18:19 | 34.14998 | -89.25146 | 29903 ft | 372 kts | 285° |
| 2026-05-05 18:20 | 34.16168 | -89.31203 | 29898 ft | 372 kts | 285° |
| 2026-05-05 18:20 | 34.17342 | -89.37288 | 29902 ft | 373 kts | 285° |
| 2026-05-05 18:21 | 34.18505 | -89.43332 | 29897 ft | 373 kts | 285° |
| 2026-05-05 18:21 | 34.19674 | -89.49440 | 29898 ft | 371 kts | 285° |
| 2026-05-05 18:22 | 34.20890 | -89.55475 | 29893 ft | 372 kts | 287° |
| 2026-05-05 18:22 | 34.22351 | -89.61447 | 29887 ft | 371 kts | 288° |
| 2026-05-05 18:23 | 34.23853 | -89.67441 | 29887 ft | 370 kts | 287° |
| 2026-05-05 18:23 | 34.25328 | -89.73422 | 29880 ft | 371 kts | 287° |
| 2026-05-05 18:24 | 34.26775 | -89.79381 | 29877 ft | 371 kts | 287° |
| 2026-05-05 18:24 | 34.28216 | -89.85354 | 29883 ft | 369 kts | 287° |
| 2026-05-05 18:25 | 34.29649 | -89.91318 | 29882 ft | 370 kts | 287° |
| 2026-05-05 18:25 | 34.31084 | -89.97299 | 29877 ft | 371 kts | 287° |
| 2026-05-05 18:26 | 34.32510 | -90.03258 | 29875 ft | 369 kts | 287° |
| 2026-05-05 18:26 | 34.33934 | -90.09229 | 29866 ft | 370 kts | 287° |
| 2026-05-05 18:27 | 34.35357 | -90.15207 | 29860 ft | 369 kts | 287° |
| 2026-05-05 18:27 | 34.36767 | -90.21146 | 29853 ft | 368 kts | 287° |
| 2026-05-05 18:28 | 34.38887 | -90.30098 | 29855 ft | 369 kts | 287° |
| 2026-05-05 18:28 | 34.40297 | -90.36063 | 29856 ft | 367 kts | 287° |
| 2026-05-05 18:29 | 34.41695 | -90.42000 | 29865 ft | 369 kts | 287° |
| 2026-05-05 18:29 | 34.43102 | -90.47984 | 29858 ft | 369 kts | 287° |
| 2026-05-05 18:30 | 34.44491 | -90.53917 | 29856 ft | 367 kts | 286° |
| 2026-05-05 18:30 | 34.45885 | -90.59873 | 29846 ft | 369 kts | 287° |
| 2026-05-05 18:31 | 34.47280 | -90.65853 | 29848 ft | 368 kts | 286° |
| 2026-05-05 18:31 | 34.48680 | -90.71866 | 29843 ft | 367 kts | 286° |
| 2026-05-05 18:32 | 34.50070 | -90.77851 | 29829 ft | 370 kts | 286° |
| 2026-05-05 18:32 | 34.51441 | -90.83774 | 29826 ft | 367 kts | 286° |
| 2026-05-05 18:33 | 34.52824 | -90.89767 | 29818 ft | 367 kts | 286° |
| 2026-05-05 18:33 | 34.54181 | -90.95667 | 29824 ft | 366 kts | 286° |
| 2026-05-05 18:34 | 34.55552 | -91.01633 | 29811 ft | 367 kts | 286° |
| 2026-05-05 18:34 | 34.56918 | -91.07584 | 29812 ft | 367 kts | 286° |
| 2026-05-05 18:35 | 34.58286 | -91.13545 | 29809 ft | 365 kts | 285° |
| 2026-05-05 18:35 | 34.59639 | -91.19477 | 29809 ft | 365 kts | 285° |
| 2026-05-05 18:36 | 34.60976 | -91.25365 | 29809 ft | 364 kts | 286° |
| 2026-05-05 18:36 | 34.62328 | -91.31310 | 29802 ft | 366 kts | 285° |
| 2026-05-05 18:37 | 34.63672 | -91.37246 | 29815 ft | 363 kts | 285° |
| 2026-05-05 18:37 | 34.65005 | -91.43153 | 29815 ft | 365 kts | 286° |
| 2026-05-05 18:38 | 34.66347 | -91.49097 | 29824 ft | 363 kts | 285° |
| 2026-05-05 18:38 | 34.67675 | -91.55009 | 29819 ft | 364 kts | 285° |
| 2026-05-05 18:39 | 34.69006 | -91.60936 | 29814 ft | 363 kts | 285° |
| 2026-05-05 18:39 | 34.70340 | -91.66884 | 29802 ft | 362 kts | 285° |
| 2026-05-05 18:40 | 34.71662 | -91.72794 | 29795 ft | 362 kts | 285° |
| 2026-05-05 18:40 | 34.72971 | -91.78675 | 29787 ft | 362 kts | 285° |
| 2026-05-05 18:41 | 34.74279 | -91.84566 | 29790 ft | 362 kts | 285° |
| 2026-05-05 18:41 | 34.75581 | -91.90454 | 29790 ft | 361 kts | 284° |
| 2026-05-05 18:42 | 34.76877 | -91.96328 | 29800 ft | 360 kts | 285° |
| 2026-05-05 18:42 | 34.78179 | -92.02235 | 29803 ft | 360 kts | 285° |
| 2026-05-05 18:43 | 34.79464 | -92.08093 | 29802 ft | 359 kts | 285° |
| 2026-05-05 18:43 | 34.80747 | -92.13989 | 29804 ft | 359 kts | 284° |
| 2026-05-05 18:44 | 34.81578 | -92.19973 | 29799 ft | 360 kts | 278° |
| 2026-05-05 18:44 | 34.82076 | -92.26002 | 29800 ft | 359 kts | 277° |
| 2026-05-05 18:45 | 34.82570 | -92.32034 | 29800 ft | 359 kts | 277° |
| 2026-05-05 18:45 | 34.83089 | -92.38045 | 29800 ft | 359 kts | 278° |
| 2026-05-05 18:46 | 34.83622 | -92.44072 | 29799 ft | 356 kts | 278° |
| 2026-05-05 18:46 | 34.84150 | -92.50043 | 29799 ft | 357 kts | 278° |
| 2026-05-05 18:47 | 34.84682 | -92.56027 | 29796 ft | 356 kts | 277° |
| 2026-05-05 18:47 | 34.85212 | -92.62003 | 29782 ft | 355 kts | 278° |
| 2026-05-05 18:48 | 34.85745 | -92.68025 | 29772 ft | 356 kts | 277° |
| 2026-05-05 18:48 | 34.86266 | -92.73980 | 29760 ft | 354 kts | 277° |
| 2026-05-05 18:49 | 34.86779 | -92.79949 | 29759 ft | 355 kts | 277° |
| 2026-05-05 18:49 | 34.87286 | -92.85864 | 29754 ft | 353 kts | 277° |
| 2026-05-05 18:50 | 34.87799 | -92.91803 | 29755 ft | 354 kts | 277° |
| 2026-05-05 18:50 | 34.88306 | -92.97746 | 29757 ft | 353 kts | 277° |
| 2026-05-05 18:51 | 34.88806 | -93.03673 | 29760 ft | 353 kts | 277° |
| 2026-05-05 18:51 | 34.89301 | -93.09610 | 29762 ft | 352 kts | 277° |
| 2026-05-05 18:52 | 34.89795 | -93.15535 | 29758 ft | 353 kts | 277° |
| 2026-05-05 18:52 | 34.90283 | -93.21455 | 29762 ft | 352 kts | 277° |
| 2026-05-05 18:53 | 34.90770 | -93.27396 | 29769 ft | 351 kts | 277° |
| 2026-05-05 18:53 | 34.91254 | -93.33315 | 29768 ft | 353 kts | 277° |
| 2026-05-05 18:54 | 34.91734 | -93.39222 | 29760 ft | 351 kts | 277° |
| 2026-05-05 18:54 | 34.92213 | -93.45155 | 29760 ft | 352 kts | 277° |
| 2026-05-05 18:55 | 34.92688 | -93.51047 | 29753 ft | 352 kts | 276° |
| 2026-05-05 18:55 | 34.93162 | -93.56995 | 29759 ft | 352 kts | 277° |
| 2026-05-05 18:56 | 34.93632 | -93.62933 | 29766 ft | 352 kts | 277° |
| 2026-05-05 18:56 | 34.94104 | -93.68903 | 29774 ft | 352 kts | 276° |
| 2026-05-05 18:57 | 34.94571 | -93.74828 | 29774 ft | 351 kts | 276° |
| 2026-05-05 18:57 | 34.95036 | -93.80723 | 29770 ft | 351 kts | 275° |
| 2026-05-05 18:58 | 34.95496 | -93.86646 | 29762 ft | 351 kts | 276° |
| 2026-05-05 18:58 | 34.95953 | -93.92561 | 29759 ft | 351 kts | 276° |
| 2026-05-05 18:59 | 34.96402 | -93.98483 | 29747 ft | 350 kts | 275° |
| 2026-05-05 18:59 | 34.96852 | -94.04371 | 29749 ft | 352 kts | 275° |
| 2026-05-05 19:00 | 34.97298 | -94.10290 | 29747 ft | 350 kts | 275° |
| 2026-05-05 19:00 | 34.97743 | -94.16227 | 29742 ft | 352 kts | 275° |
| 2026-05-05 19:01 | 34.98174 | -94.22127 | 29737 ft | 350 kts | 275° |
| 2026-05-05 19:01 | 34.98605 | -94.28040 | 29746 ft | 351 kts | 275° |
| 2026-05-05 19:02 | 34.99034 | -94.33944 | 29736 ft | 350 kts | 275° |
| 2026-05-05 19:02 | 34.99469 | -94.39888 | 29741 ft | 352 kts | 275° |
| 2026-05-05 19:03 | 34.99897 | -94.45775 | 29733 ft | 351 kts | 275° |
| 2026-05-05 19:03 | 35.00323 | -94.51693 | 29727 ft | 351 kts | 275° |
| 2026-05-05 19:04 | 35.00748 | -94.57608 | 29730 ft | 349 kts | 275° |
| 2026-05-05 19:04 | 35.01169 | -94.63541 | 29727 ft | 350 kts | 275° |
| 2026-05-05 19:05 | 35.01622 | -94.69495 | 29724 ft | 351 kts | 277° |
| 2026-05-05 19:05 | 35.02394 | -94.75354 | 29724 ft | 350 kts | 278° |
| 2026-05-05 19:06 | 35.03265 | -94.81242 | 29721 ft | 351 kts | 278° |
| 2026-05-05 19:06 | 35.04095 | -94.87090 | 29712 ft | 351 kts | 278° |
| 2026-05-05 19:07 | 35.04899 | -94.92922 | 29706 ft | 351 kts | 277° |
| 2026-05-05 19:07 | 35.05693 | -94.98785 | 29699 ft | 351 kts | 278° |
| 2026-05-05 19:08 | 35.06487 | -95.04683 | 29711 ft | 352 kts | 277° |
| 2026-05-05 19:08 | 35.07272 | -95.10562 | 29708 ft | 351 kts | 278° |
| 2026-05-05 19:09 | 35.08054 | -95.16442 | 29714 ft | 350 kts | 277° |
| 2026-05-05 19:09 | 35.08832 | -95.22303 | 29721 ft | 351 kts | 277° |
| 2026-05-05 19:10 | 35.09612 | -95.28178 | 29722 ft | 350 kts | 277° |
| 2026-05-05 19:10 | 35.10392 | -95.34069 | 29712 ft | 351 kts | 277° |
| 2026-05-05 19:11 | 35.11170 | -95.39951 | 29704 ft | 350 kts | 277° |
| 2026-05-05 19:11 | 35.11941 | -95.45821 | 29708 ft | 351 kts | 277° |
| 2026-05-05 19:12 | 35.12678 | -95.51708 | 29718 ft | 349 kts | 276° |
| 2026-05-05 19:12 | 35.13368 | -95.57544 | 29719 ft | 350 kts | 276° |
| 2026-05-05 19:13 | 35.14058 | -95.63445 | 29718 ft | 350 kts | 276° |
| 2026-05-05 19:13 | 35.14754 | -95.69351 | 29720 ft | 349 kts | 276° |
| 2026-05-05 19:14 | 35.15448 | -95.75230 | 29721 ft | 349 kts | 276° |
| 2026-05-05 19:14 | 35.16133 | -95.81063 | 29671 ft | 344 kts | 276° |
| 2026-05-05 19:15 | 35.16466 | -95.83918 | 29354 ft | 337 kts | 275° |
| 2026-05-05 19:15 | 35.16793 | -95.86706 | 29017 ft | 329 kts | 276° |
| 2026-05-05 19:15 | 35.17111 | -95.89426 | 28787 ft | 318 kts | 276° |
| 2026-05-05 19:15 | 35.17425 | -95.92115 | 28474 ft | 321 kts | 276° |
| 2026-05-05 19:16 | 35.17743 | -95.94876 | 28048 ft | 340 kts | 276° |
| 2026-05-05 19:16 | 35.18075 | -95.97758 | 27573 ft | 347 kts | 276° |
| 2026-05-05 19:16 | 35.18413 | -96.00665 | 27096 ft | 343 kts | 275° |
| 2026-05-05 19:16 | 35.18748 | -96.03533 | 26622 ft | 338 kts | 275° |
| 2026-05-05 19:17 | 35.19072 | -96.06323 | 26151 ft | 333 kts | 275° |
| 2026-05-05 19:17 | 35.19397 | -96.09122 | 25687 ft | 328 kts | 276° |
| 2026-05-05 19:17 | 35.19709 | -96.11830 | 25230 ft | 324 kts | 275° |
| 2026-05-05 19:17 | 35.20022 | -96.14550 | 24784 ft | 319 kts | 276° |
| 2026-05-05 19:18 | 35.20330 | -96.17232 | 24330 ft | 315 kts | 275° |
| 2026-05-05 19:18 | 35.20631 | -96.19878 | 23893 ft | 321 kts | 276° |
| 2026-05-05 19:18 | 35.20940 | -96.22631 | 23597 ft | 331 kts | 275° |
| 2026-05-05 19:18 | 35.21232 | -96.25420 | 23085 ft | 332 kts | 275° |
| 2026-05-05 19:19 | 35.21509 | -96.28207 | 22605 ft | 328 kts | 275° |
| 2026-05-05 19:19 | 35.21776 | -96.30939 | 22131 ft | 324 kts | 275° |
| 2026-05-05 19:19 | 35.22043 | -96.33659 | 21676 ft | 321 kts | 275° |
| 2026-05-05 19:19 | 35.22310 | -96.36344 | 21209 ft | 317 kts | 275° |
| 2026-05-05 19:20 | 35.22572 | -96.38997 | 20738 ft | 314 kts | 275° |
| 2026-05-05 19:20 | 35.22830 | -96.41618 | 20274 ft | 311 kts | 274° |
| 2026-05-05 19:20 | 35.23086 | -96.44222 | 19821 ft | 307 kts | 275° |
| 2026-05-05 19:20 | 35.23341 | -96.46802 | 19349 ft | 304 kts | 275° |
| 2026-05-05 19:21 | 35.23594 | -96.49365 | 18904 ft | 301 kts | 274° |
| 2026-05-05 19:21 | 35.23843 | -96.51880 | 18445 ft | 299 kts | 274° |
| 2026-05-05 19:21 | 35.24089 | -96.54392 | 17973 ft | 296 kts | 275° |
| 2026-05-05 19:21 | 35.24332 | -96.56908 | 17498 ft | 294 kts | 274° |
| 2026-05-05 19:22 | 35.24560 | -96.59341 | 17163 ft | 287 kts | 274° |
| 2026-05-05 19:22 | 35.24787 | -96.61758 | 16767 ft | 295 kts | 274° |
| 2026-05-05 19:22 | 35.24999 | -96.64320 | 16296 ft | 308 kts | 272° |
| 2026-05-05 19:22 | 35.25139 | -96.66988 | 15790 ft | 307 kts | 271° |
| 2026-05-05 19:23 | 35.25239 | -96.69555 | 15310 ft | 304 kts | 270° |
| 2026-05-05 19:23 | 35.25337 | -96.72133 | 14825 ft | 302 kts | 271° |
| 2026-05-05 19:23 | 35.25442 | -96.74695 | 14340 ft | 300 kts | 271° |
| 2026-05-05 19:23 | 35.25553 | -96.77210 | 13920 ft | 295 kts | 271° |
| 2026-05-05 19:24 | 35.25666 | -96.79682 | 13690 ft | 285 kts | 271° |
| 2026-05-05 19:24 | 35.25774 | -96.82027 | 13593 ft | 271 kts | 271° |
| 2026-05-05 19:24 | 35.25881 | -96.84309 | 13364 ft | 264 kts | 271° |
| 2026-05-05 19:24 | 35.25981 | -96.86536 | 12943 ft | 263 kts | 271° |
| 2026-05-05 19:25 | 35.26080 | -96.88769 | 12511 ft | 263 kts | 271° |
| 2026-05-05 19:25 | 35.26181 | -96.90979 | 12091 ft | 262 kts | 271° |
| 2026-05-05 19:25 | 35.26284 | -96.93213 | 11715 ft | 260 kts | 271° |
| 2026-05-05 19:25 | 35.26382 | -96.95410 | 11352 ft | 258 kts | 271° |
| 2026-05-05 19:26 | 35.26482 | -96.97594 | 10992 ft | 256 kts | 271° |
| 2026-05-05 19:26 | 35.26588 | -96.99749 | 10641 ft | 253 kts | 271° |
| 2026-05-05 19:26 | 35.26698 | -97.01869 | 10297 ft | 251 kts | 271° |
| 2026-05-05 19:26 | 35.26804 | -97.04005 | 9927 ft | 250 kts | 271° |
| 2026-05-05 19:27 | 35.26903 | -97.06117 | 9551 ft | 249 kts | 271° |
| 2026-05-05 19:27 | 35.26999 | -97.08220 | 9192 ft | 248 kts | 271° |
| 2026-05-05 19:27 | 35.27095 | -97.10332 | 8820 ft | 247 kts | 271° |
| 2026-05-05 19:27 | 35.27189 | -97.12415 | 8457 ft | 246 kts | 271° |
| 2026-05-05 19:28 | 35.27282 | -97.14500 | 8098 ft | 246 kts | 271° |
| 2026-05-05 19:28 | 35.27244 | -97.16568 | 7733 ft | 244 kts | 258° |
| 2026-05-05 19:28 | 35.26574 | -97.18456 | 7373 ft | 243 kts | 237° |
| 2026-05-05 19:28 | 35.25561 | -97.20111 | 6999 ft | 243 kts | 233° |
| 2026-05-05 19:29 | 35.24500 | -97.21719 | 6642 ft | 243 kts | 233° |
| 2026-05-05 19:29 | 35.23454 | -97.23299 | 6287 ft | 243 kts | 233° |
| 2026-05-05 19:29 | 35.22429 | -97.24957 | 5904 ft | 243 kts | 241° |
| 2026-05-05 19:29 | 35.21735 | -97.26829 | 5538 ft | 242 kts | 251° |
| 2026-05-05 19:30 | 35.21182 | -97.28770 | 5245 ft | 240 kts | 253° |
| 2026-05-05 19:30 | 35.20644 | -97.30690 | 4993 ft | 236 kts | 253° |
| 2026-05-05 19:30 | 35.20105 | -97.32587 | 4742 ft | 234 kts | 254° |
| 2026-05-05 19:30 | 35.19565 | -97.34451 | 4493 ft | 235 kts | 253° |
| 2026-05-05 19:31 | 35.18996 | -97.36363 | 4246 ft | 238 kts | 253° |
| 2026-05-05 19:31 | 35.18420 | -97.38249 | 4006 ft | 239 kts | 253° |
| 2026-05-05 19:31 | 35.17827 | -97.40159 | 3751 ft | 239 kts | 253° |
| 2026-05-05 19:31 | 35.17231 | -97.42052 | 3502 ft | 240 kts | 253° |
| 2026-05-05 19:32 | 35.16622 | -97.43953 | 3257 ft | 242 kts | 253° |
| 2026-05-05 19:32 | 35.16024 | -97.45877 | 3008 ft | 239 kts | 260° |
| 2026-05-05 19:32 | 35.15962 | -97.47836 | 2965 ft | 226 kts | 291° |
| 2026-05-05 19:32 | 35.16629 | -97.49469 | 2966 ft | 207 kts | 311° |
| 2026-05-05 19:33 | 35.17489 | -97.50839 | 2976 ft | 197 kts | 313° |
| 2026-05-05 19:33 | 35.18352 | -97.52160 | 2968 ft | 199 kts | 313° |
| 2026-05-05 19:33 | 35.19186 | -97.53452 | 2964 ft | 187 kts | 313° |
| 2026-05-05 19:33 | 35.19962 | -97.54679 | 2977 ft | 177 kts | 313° |
| 2026-05-05 19:34 | 35.20699 | -97.55862 | 2970 ft | 177 kts | 314° |
| 2026-05-05 19:34 | 35.21548 | -97.56920 | 2968 ft | 165 kts | 328° |
| 2026-05-05 19:34 | 35.22425 | -97.57734 | 2980 ft | 151 kts | 328° |
| 2026-05-05 19:35 | 35.24278 | -97.58746 | 2982 ft | 145 kts | 358° |
| 2026-05-05 19:35 | 35.25280 | -97.58829 | 2975 ft | 142 kts | 359° |
| 2026-05-05 19:35 | 35.26263 | -97.58869 | 2979 ft | 143 kts | 0° |
| 2026-05-05 19:35 | 35.27242 | -97.58871 | 2979 ft | 137 kts | 2° |
| 2026-05-05 19:36 | 35.28213 | -97.58875 | 2992 ft | 142 kts | 1° |
| 2026-05-05 19:36 | 35.29201 | -97.58881 | 2931 ft | 140 kts | 1° |
| 2026-05-05 19:36 | 35.30185 | -97.58881 | 2763 ft | 141 kts | 1° |
| 2026-05-05 19:36 | 35.31161 | -97.58884 | 2564 ft | 139 kts | 2° |
| 2026-05-05 19:37 | 35.32127 | -97.58884 | 2387 ft | 140 kts | 1° |
| 2026-05-05 19:37 | 35.33123 | -97.58883 | 2204 ft | 143 kts | 1° |
| 2026-05-05 19:37 | 35.34112 | -97.58890 | 2021 ft | 140 kts | 1° |
| 2026-05-05 19:37 | 35.35072 | -97.58888 | 1839 ft | 140 kts | 1° |
| 2026-05-05 19:38 | 35.36058 | -97.58888 | 1655 ft | 140 kts | 0° |
| 2026-05-05 19:38 | 35.37053 | -97.58893 | 1474 ft | 142 kts | 1° |
| 2026-05-05 19:38 | 35.38026 | -97.58889 | 1295 ft | 137 kts | 359° |
| 2026-05-05 19:38 | 35.38803 | -97.58894 | 1293 ft | 79 kts | 0° |
| 2026-05-05 19:39 | 35.39171 | -97.58891 | 1294 ft | 47 kts | 1° |
| 2026-05-05 19:39 | 35.39492 | -97.58890 | 1292 ft | 43 kts | 1° |
| 2026-05-05 19:39 | 35.39698 | -97.58935 | 1291 ft | 21 kts | 298° |
| 2026-05-05 19:39 | 35.39771 | -97.59094 | 1292 ft | 20 kts | 301° |
| 2026-05-05 19:40 | 35.39766 | -97.59146 | 1293 ft | 7 kts | 202° |
| 2026-05-05 19:40 | 35.39706 | -97.59147 | 1293 ft | 9 kts | 179° |
| 2026-05-05 19:40 | 35.39605 | -97.59150 | 1293 ft | 18 kts | 184° |
| 2026-05-05 19:40 | 35.39518 | -97.59226 | 1293 ft | 15 kts | 269° |
| 2026-05-05 19:41 | 35.39518 | -97.59322 | 1294 ft | 8 kts | 270° |
| 2026-05-05 19:41 | 35.39519 | -97.59374 | 1294 ft | 3 kts | 270° |
| 2026-05-05 19:41 | 35.39518 | -97.59382 | 1294 ft | 0 kts | 271° |
| 2026-05-05 19:41 | 35.39518 | -97.59383 | 1294 ft | 0 kts | 271° |